Time;durP1;ratioP1;P1;durP2;ratioP2;P2;SDS_P1;SDS_P2;PMS_P1;PMS_P2;Temp;Humidity;BMP_temperature;BMP_pressure;BME280_temperature;BME280_humidity;BME280_pressure;Samples;Min_cycle;Max_cycle;Signal;HPM_P1;HPM_P2
2022/08/30 00:01:04;;;;;;;;;;;26.80;79.10;;;;;;5013472;28;19936;-60
2022/08/30 00:03:33;;;;;;;;;;;26.80;79.10;;;;;;5027226;28;20306;-62
2022/08/30 00:06:01;;;;;;;;;;;26.80;79.10;;;;;;5014141;28;19929;-63
2022/08/30 00:08:28;;;;;;;;;;;26.80;79.10;;;;;;5009559;28;19933;-59
2022/08/30 00:10:55;;;;;;;;;;;26.80;79.10;;;;;;5024628;28;19930;-60
2022/08/30 00:13:23;;;;;;;;;;;26.80;79.10;;;;;;5010152;28;19926;-63
2022/08/30 00:15:50;;;;;;;;;;;26.80;79.20;;;;;;5007268;28;20419;-58
2022/08/30 00:18:19;;;;;;;;;;;26.80;79.10;;;;;;5016566;28;19937;-57
2022/08/30 00:20:51;;;;;;;;;;;26.80;79.20;;;;;;5010711;28;19936;-60
2022/08/30 00:23:18;;;;;;;;;;;26.80;79.20;;;;;;5014261;28;19930;-65
2022/08/30 00:25:46;;;;;;;;;;;26.80;79.20;;;;;;5019431;28;20321;-59
2022/08/30 00:28:15;;;;;;;;;;;26.80;79.20;;;;;;5007430;28;19926;-59
2022/08/30 00:30:43;;;;;;;;;;;26.80;79.20;;;;;;5013734;28;19937;-59
2022/08/30 00:33:11;;;;;;;;;;;26.80;79.20;;;;;;5017154;28;20320;-59
2022/08/30 00:35:38;;;;;;;;;;;26.80;79.20;;;;;;5015257;28;20424;-60
2022/08/30 00:38:07;;;;;;;;;;;26.80;79.80;;;;;;5009742;28;19929;-59
2022/08/30 00:40:35;;;;;;;;;;;26.70;79.20;;;;;;5007136;28;19940;-62
2022/08/30 00:43:03;;;;;;;;;;;26.70;79.20;;;;;;5015015;28;19929;-62
2022/08/30 00:45:33;;;;;;;;;;;26.70;79.20;;;;;;5000878;28;20486;-63
2022/08/30 00:48:00;;;;;;;;;;;26.70;79.20;;;;;;5006661;28;19925;-60
2022/08/30 00:50:29;;;;;;;;;;;26.80;79.30;;;;;;5009653;28;19933;-63
2022/08/30 00:52:58;;;;;;;;;;;26.80;79.30;;;;;;5004545;28;19936;-59
2022/08/30 00:55:26;;;;;;;;;;;26.70;79.20;;;;;;5004249;28;19926;-61
2022/08/30 00:57:57;;;;;;;;;;;26.70;79.20;;;;;;5016155;28;19937;-60
2022/08/30 01:00:27;;;;;;;;;;;26.70;79.30;;;;;;5015258;28;19936;-64
2022/08/30 01:02:56;;;;;;;;;;;26.70;79.20;;;;;;5007885;28;19929;-63
2022/08/30 01:05:24;;;;;;;;;;;26.70;79.20;;;;;;5008777;28;20397;-64
2022/08/30 01:07:51;;;;;;;;;;;26.70;79.20;;;;;;5013803;28;20413;-59
2022/08/30 01:10:18;;;;;;;;;;;26.70;79.20;;;;;;5005501;28;19933;-60
2022/08/30 01:12:46;;;;;;;;;;;26.70;79.20;;;;;;5008931;28;19926;-62
2022/08/30 01:15:14;;;;;;;;;;;26.70;79.20;;;;;;4996547;28;19930;-60
2022/08/30 01:17:43;;;;;;;;;;;26.70;79.20;;;;;;5006989;28;19961;-63
2022/08/30 01:20:16;;;;;;;;;;;26.70;79.20;;;;;;5006170;28;19929;-61
2022/08/30 01:22:56;;;;;;;;;;;26.70;79.20;;;;;;5021347;28;19929;-62
2022/08/30 01:25:26;;;;;;;;;;;26.70;79.20;;;;;;5028765;28;19936;-59
2022/08/30 01:27:55;;;;;;;;;;;26.70;79.20;;;;;;5023612;28;19936;-61
2022/08/30 01:30:22;;;;;;;;;;;26.70;79.20;;;;;;5018476;28;19936;-63
2022/08/30 01:32:55;;;;;;;;;;;26.70;79.30;;;;;;5007903;28;20313;-64
2022/08/30 01:35:22;;;;;;;;;;;26.70;79.20;;;;;;5004590;28;20428;-61
2022/08/30 01:37:50;;;;;;;;;;;26.60;79.10;;;;;;5008318;28;19934;-59
2022/08/30 01:40:18;;;;;;;;;;;26.70;79.20;;;;;;5017599;28;19926;-64
2022/08/30 01:42:46;;;;;;;;;;;26.70;79.30;;;;;;5014104;28;19925;-62
2022/08/30 01:45:13;;;;;;;;;;;26.70;79.30;;;;;;4996916;28;20456;-62
2022/08/30 01:47:41;;;;;;;;;;;26.70;79.80;;;;;;5013071;28;19932;-61
2022/08/30 01:50:09;;;;;;;;;;;26.70;79.20;;;;;;5001870;28;19936;-62
2022/08/30 01:52:37;;;;;;;;;;;26.60;79.20;;;;;;5020636;28;19934;-63
2022/08/30 01:55:04;;;;;;;;;;;26.60;79.20;;;;;;5025358;28;19937;-60
2022/08/30 01:57:31;;;;;;;;;;;26.60;79.20;;;;;;5017592;28;19930;-63
2022/08/30 01:59:58;;;;;;;;;;;26.60;79.20;;;;;;5018370;28;19933;-61
2022/08/30 02:02:27;;;;;;;;;;;26.60;79.20;;;;;;5014155;28;19948;-64
2022/08/30 02:04:55;;;;;;;;;;;26.60;79.20;;;;;;5013889;28;19929;-62
2022/08/30 02:07:24;;;;;;;;;;;26.60;79.20;;;;;;5009639;28;19930;-63
2022/08/30 02:09:51;;;;;;;;;;;26.60;79.30;;;;;;5011856;28;19925;-61
2022/08/30 02:12:19;;;;;;;;;;;26.60;79.30;;;;;;5015100;28;19937;-61
2022/08/30 02:14:47;;;;;;;;;;;26.60;79.30;;;;;;5009577;28;19936;-62
2022/08/30 02:17:14;;;;;;;;;;;26.60;79.30;;;;;;5013776;28;19925;-61
2022/08/30 02:19:42;;;;;;;;;;;26.60;79.30;;;;;;5019191;28;19933;-61
2022/08/30 02:22:09;;;;;;;;;;;26.60;79.30;;;;;;5017804;28;20008;-61
2022/08/30 02:24:37;;;;;;;;;;;26.60;79.30;;;;;;5019817;28;19932;-61
2022/08/30 02:27:04;;;;;;;;;;;26.60;79.30;;;;;;5028737;28;19952;-62
2022/08/30 02:29:31;;;;;;;;;;;26.60;79.30;;;;;;5014907;28;19929;-61
2022/08/30 02:31:59;;;;;;;;;;;26.50;79.20;;;;;;5014744;28;19925;-61
2022/08/30 02:34:26;;;;;;;;;;;26.60;79.30;;;;;;5006868;28;20393;-61
2022/08/30 02:36:53;;;;;;;;;;;26.50;79.20;;;;;;5005697;28;19929;-61
2022/08/30 02:39:21;;;;;;;;;;;26.50;79.30;;;;;;5014301;28;20301;-67
2022/08/30 02:41:48;;;;;;;;;;;26.50;79.30;;;;;;5010171;28;19930;-59
2022/08/30 02:44:15;;;;;;;;;;;26.50;79.30;;;;;;5004396;28;19930;-60
2022/08/30 02:46:42;;;;;;;;;;;26.50;79.30;;;;;;5009235;28;19952;-62
2022/08/30 02:49:09;;;;;;;;;;;26.50;79.30;;;;;;5013631;28;19933;-61
2022/08/30 02:51:57;;;;;;;;;;;26.50;79.30;;;;;;5019238;28;20419;-61
2022/08/30 02:54:24;;;;;;;;;;;26.50;79.30;;;;;;5024330;28;19959;-61
2022/08/30 02:56:51;;;;;;;;;;;26.50;79.30;;;;;;5021695;28;19926;-60
2022/08/30 02:59:18;;;;;;;;;;;26.50;79.30;;;;;;5011372;28;19925;-61
2022/08/30 03:01:46;;;;;;;;;;;26.50;79.30;;;;;;5010059;28;19937;-60
2022/08/30 03:04:13;;;;;;;;;;;26.50;79.30;;;;;;5018319;28;19929;-60
2022/08/30 03:06:41;;;;;;;;;;;26.50;79.30;;;;;;5004884;28;20461;-62
2022/08/30 03:09:08;;;;;;;;;;;26.50;79.30;;;;;;5030755;28;19925;-64
2022/08/30 03:11:36;;;;;;;;;;;26.50;79.40;;;;;;5009499;28;20278;-61
2022/08/30 03:14:03;;;;;;;;;;;26.50;79.30;;;;;;5006864;28;19937;-60
2022/08/30 03:16:30;;;;;;;;;;;26.50;79.30;;;;;;5015689;28;19955;-61
2022/08/30 03:18:58;;;;;;;;;;;26.50;79.30;;;;;;5020508;28;19929;-63
2022/08/30 03:21:25;;;;;;;;;;;26.50;79.40;;;;;;5018453;28;19930;-63
2022/08/30 03:23:52;;;;;;;;;;;26.50;79.30;;;;;;5011446;28;20329;-62
2022/08/30 03:26:19;;;;;;;;;;;26.50;79.30;;;;;;5007030;28;19929;-62
2022/08/30 03:28:46;;;;;;;;;;;26.50;79.30;;;;;;5016700;28;19929;-61
2022/08/30 03:31:13;;;;;;;;;;;26.50;79.30;;;;;;5014225;28;20325;-62
2022/08/30 03:33:41;;;;;;;;;;;26.50;79.30;;;;;;5021851;28;19925;-60
2022/08/30 03:36:08;;;;;;;;;;;26.50;79.30;;;;;;5003900;28;20337;-65
2022/08/30 03:38:37;;;;;;;;;;;26.50;79.30;;;;;;5009865;28;20413;-58
2022/08/30 03:41:04;;;;;;;;;;;26.50;79.30;;;;;;5023529;28;19940;-70
2022/08/30 03:43:33;;;;;;;;;;;26.50;79.30;;;;;;5013534;28;20050;-69
2022/08/30 03:46:01;;;;;;;;;;;26.50;79.40;;;;;;5016636;28;19972;-65
2022/08/30 03:48:28;;;;;;;;;;;26.40;79.30;;;;;;5029031;28;19936;-62
2022/08/30 03:50:56;;;;;;;;;;;26.40;79.30;;;;;;5008864;28;19929;-68
2022/08/30 03:53:23;;;;;;;;;;;26.50;79.40;;;;;;5014875;28;20398;-59
2022/08/30 03:55:53;;;;;;;;;;;26.40;79.30;;;;;;5021345;28;19925;-60
2022/08/30 03:58:23;;;;;;;;;;;26.50;79.40;;;;;;5018450;28;19925;-60
2022/08/30 04:00:50;;;;;;;;;;;26.40;79.30;;;;;;5012892;28;19949;-63
2022/08/30 04:03:19;;;;;;;;;;;26.50;79.40;;;;;;5017454;28;19936;-61
2022/08/30 04:05:47;;;;;;;;;;;26.50;79.40;;;;;;5015867;28;19932;-61
2022/08/30 04:08:14;;;;;;;;;;;26.40;79.30;;;;;;5027672;28;19932;-62
2022/08/30 04:10:41;;;;;;;;;;;26.40;79.40;;;;;;5012678;28;19936;-60
2022/08/30 04:13:09;;;;;;;;;;;26.40;79.40;;;;;;5020020;28;20344;-59
2022/08/30 04:15:36;;;;;;;;;;;26.40;79.40;;;;;;5014888;28;19926;-63
2022/08/30 04:18:03;;;;;;;;;;;26.40;79.40;;;;;;5029522;28;19925;-61
2022/08/30 04:20:31;;;;;;;;;;;26.40;79.40;;;;;;5011220;28;19933;-62
2022/08/30 04:22:58;;;;;;;;;;;26.40;79.40;;;;;;5027326;28;19929;-62
2022/08/30 04:25:26;;;;;;;;;;;26.40;79.40;;;;;;5022790;28;19926;-64
2022/08/30 04:27:54;;;;;;;;;;;26.40;79.40;;;;;;5027672;28;19925;-62
2022/08/30 04:30:21;;;;;;;;;;;26.40;79.40;;;;;;5022822;28;19941;-61
2022/08/30 04:32:49;;;;;;;;;;;26.40;79.40;;;;;;5019603;28;19929;-61
2022/08/30 04:35:16;;;;;;;;;;;26.40;79.40;;;;;;5015655;28;19941;-64
2022/08/30 04:37:43;;;;;;;;;;;26.40;79.40;;;;;;5016856;28;19940;-64
2022/08/30 04:40:11;;;;;;;;;;;26.30;79.40;;;;;;5023772;28;19953;-63
2022/08/30 04:42:38;;;;;;;;;;;26.40;79.40;;;;;;5029972;28;19925;-63
2022/08/30 04:45:07;;;;;;;;;;;26.40;79.50;;;;;;5017674;28;19929;-66
2022/08/30 04:47:35;;;;;;;;;;;26.40;79.50;;;;;;5020933;28;19929;-62
2022/08/30 04:50:03;;;;;;;;;;;26.30;79.40;;;;;;5014988;28;19929;-64
2022/08/30 04:52:30;;;;;;;;;;;26.40;79.50;;;;;;5029767;28;19930;-64
2022/08/30 04:54:58;;;;;;;;;;;26.30;79.40;;;;;;5015963;28;21235;-63
2022/08/30 04:57:26;;;;;;;;;;;26.30;79.40;;;;;;5014061;28;19937;-64
2022/08/30 04:59:53;;;;;;;;;;;26.30;79.40;;;;;;5012114;28;19929;-65
2022/08/30 05:02:21;;;;;;;;;;;26.30;79.40;;;;;;5016453;28;19934;-63
2022/08/30 05:07:34;;;;;;;;;;;26.30;79.50;;;;;;5002311;28;19929;-63
2022/08/30 05:10:02;;;;;;;;;;;26.30;79.50;;;;;;5009978;28;19940;-63
2022/08/30 05:12:36;;;;;;;;;;;26.30;79.40;;;;;;4995561;28;19925;-64
2022/08/30 05:15:04;;;;;;;;;;;26.30;79.40;;;;;;5013735;28;19925;-61
2022/08/30 05:17:31;;;;;;;;;;;26.30;79.50;;;;;;5018219;28;19944;-64
2022/08/30 05:19:59;;;;;;;;;;;26.30;79.40;;;;;;5015491;28;19948;-63
2022/08/30 05:22:27;;;;;;;;;;;26.30;79.50;;;;;;5016772;28;19929;-64
2022/08/30 05:24:54;;;;;;;;;;;26.30;79.50;;;;;;5006046;28;20401;-64
2022/08/30 05:27:21;;;;;;;;;;;26.30;79.50;;;;;;5012078;28;20025;-63
2022/08/30 05:29:48;;;;;;;;;;;26.30;79.50;;;;;;5010983;28;19936;-61
2022/08/30 05:32:16;;;;;;;;;;;26.30;79.40;;;;;;5015505;28;19926;-64
2022/08/30 05:34:43;;;;;;;;;;;26.30;79.40;;;;;;5018610;28;19932;-64
2022/08/30 05:37:11;;;;;;;;;;;26.30;79.40;;;;;;5018363;28;19933;-64
2022/08/30 05:39:38;;;;;;;;;;;26.30;79.40;;;;;;5021935;28;19937;-64
2022/08/30 05:42:17;;;;;;;;;;;26.30;79.40;;;;;;5019265;28;19929;-62
2022/08/30 05:44:46;;;;;;;;;;;26.30;79.40;;;;;;5011649;28;19936;-64
2022/08/30 05:47:13;;;;;;;;;;;26.30;79.50;;;;;;5018186;28;19929;-62
2022/08/30 05:49:40;;;;;;;;;;;26.30;79.50;;;;;;5009520;28;19931;-62
2022/08/30 05:52:08;;;;;;;;;;;26.30;79.50;;;;;;5012747;28;20275;-62
2022/08/30 05:54:35;;;;;;;;;;;26.30;79.40;;;;;;5001605;28;19932;-61
2022/08/30 05:57:02;;;;;;;;;;;26.30;79.40;;;;;;5013507;28;19968;-61
2022/08/30 05:59:30;;;;;;;;;;;26.30;79.40;;;;;;5012627;28;20244;-62
2022/08/30 06:01:57;;;;;;;;;;;26.30;79.50;;;;;;5008867;28;19930;-58
2022/08/30 06:04:25;;;;;;;;;;;26.30;79.50;;;;;;5010510;28;19930;-60
2022/08/30 06:06:52;;;;;;;;;;;26.30;79.50;;;;;;5012603;28;19936;-61
2022/08/30 06:09:19;;;;;;;;;;;26.30;79.50;;;;;;5023375;28;19937;-62
2022/08/30 06:11:47;;;;;;;;;;;26.30;79.40;;;;;;5013918;28;19930;-63
2022/08/30 06:14:14;;;;;;;;;;;26.30;79.40;;;;;;5010018;28;19931;-62
2022/08/30 06:16:44;;;;;;;;;;;26.30;79.50;;;;;;5016705;28;19934;-62
2022/08/30 06:19:13;;;;;;;;;;;26.30;79.40;;;;;;5015510;28;19933;-59
2022/08/30 06:21:41;;;;;;;;;;;26.30;79.50;;;;;;5005984;28;19930;-61
2022/08/30 06:24:09;;;;;;;;;;;26.30;79.40;;;;;;5025709;28;19929;-63
2022/08/30 06:26:40;;;;;;;;;;;26.30;79.40;;;;;;5018170;28;19925;-61
2022/08/30 06:29:08;;;;;;;;;;;26.30;79.50;;;;;;5016868;28;19937;-61
2022/08/30 06:31:35;;;;;;;;;;;26.30;79.40;;;;;;5011907;28;19930;-63
2022/08/30 06:34:03;;;;;;;;;;;26.30;79.40;;;;;;5008232;28;19930;-62
2022/08/30 06:36:31;;;;;;;;;;;26.30;79.40;;;;;;5010732;28;19960;-64
2022/08/30 06:38:59;;;;;;;;;;;26.30;79.40;;;;;;5020723;28;19936;-60
2022/08/30 06:41:28;;;;;;;;;;;26.30;79.40;;;;;;5026988;28;19977;-64
2022/08/30 06:43:55;;;;;;;;;;;26.30;79.40;;;;;;5019933;28;19930;-61
2022/08/30 06:46:25;;;;;;;;;;;26.30;79.40;;;;;;5014900;28;19929;-61
2022/08/30 06:48:53;;;;;;;;;;;26.30;79.40;;;;;;5016674;28;19930;-61
2022/08/30 06:51:23;;;;;;;;;;;26.30;79.40;;;;;;5007943;28;19936;-62
2022/08/30 06:53:50;;;;;;;;;;;26.30;79.40;;;;;;5015697;28;20398;-62
2022/08/30 06:56:18;;;;;;;;;;;26.30;79.40;;;;;;5018193;28;19936;-61
2022/08/30 06:58:46;;;;;;;;;;;26.30;79.40;;;;;;5022194;28;19924;-61
2022/08/30 07:01:18;;;;;;;;;;;26.30;79.40;;;;;;5018194;28;19929;-64
2022/08/30 07:03:45;;;;;;;;;;;26.30;79.40;;;;;;5009647;28;19936;-59
2022/08/30 07:06:13;;;;;;;;;;;26.30;79.40;;;;;;5018964;28;19930;-65
2022/08/30 07:08:40;;;;;;;;;;;26.30;79.40;;;;;;5018999;28;19929;-64
2022/08/30 07:11:08;;;;;;;;;;;26.30;79.40;;;;;;5030067;28;19930;-63
2022/08/30 07:13:35;;;;;;;;;;;26.30;79.50;;;;;;4997510;28;19929;-64
2022/08/30 07:16:10;;;;;;;;;;;26.30;79.40;;;;;;5011636;28;19936;-60
2022/08/30 07:18:49;;;;;;;;;;;26.30;79.40;;;;;;5026461;28;19937;-64
2022/08/30 07:21:19;;;;;;;;;;;26.40;79.50;;;;;;5012123;28;19936;-63
2022/08/30 07:23:48;;;;;;;;;;;26.40;79.50;;;;;;5008566;28;20337;-64
2022/08/30 07:26:27;;;;;;;;;;;26.40;79.40;;;;;;5016629;28;19933;-62
2022/08/30 07:28:55;;;;;;;;;;;26.40;79.40;;;;;;5015008;28;20507;-64
2022/08/30 07:31:23;;;;;;;;;;;26.40;79.50;;;;;;5005567;28;19934;-59
2022/08/30 07:33:51;;;;;;;;;;;26.40;79.50;;;;;;5017957;28;19925;-62
2022/08/30 07:36:18;;;;;;;;;;;26.40;79.50;;;;;;5009037;28;19929;-61
2022/08/30 07:38:45;;;;;;;;;;;26.40;79.60;;;;;;5013822;28;19925;-64
2022/08/30 07:41:19;;;;;;;;;;;26.40;79.60;;;;;;5011099;28;20495;-63
2022/08/30 07:43:46;;;;;;;;;;;26.40;79.60;;;;;;5018922;28;19929;-63
2022/08/30 07:46:13;;;;;;;;;;;26.40;79.60;;;;;;5007744;28;19936;-66
2022/08/30 07:48:41;;;;;;;;;;;26.40;79.60;;;;;;5003022;28;19944;-64
2022/08/30 07:51:12;;;;;;;;;;;26.40;79.50;;;;;;5031070;28;19936;-63
2022/08/30 07:53:39;;;;;;;;;;;26.50;79.60;;;;;;5012227;28;19936;-59
2022/08/30 07:56:06;;;;;;;;;;;26.40;79.60;;;;;;5015851;28;19929;-64
2022/08/30 07:58:36;;;;;;;;;;;26.50;79.70;;;;;;5024766;28;19992;-63
2022/08/30 08:01:05;;;;;;;;;;;26.50;79.60;;;;;;5009508;28;19929;-64
2022/08/30 08:03:32;;;;;;;;;;;26.50;79.60;;;;;;5014252;28;19937;-65
2022/08/30 08:06:00;;;;;;;;;;;26.50;79.70;;;;;;5014005;28;19929;-65
2022/08/30 08:08:28;;;;;;;;;;;26.50;79.60;;;;;;5012430;28;19945;-63
2022/08/30 08:10:55;;;;;;;;;;;26.50;79.70;;;;;;5013758;28;19929;-63
2022/08/30 08:13:23;;;;;;;;;;;26.50;79.70;;;;;;5010403;28;19938;-62
2022/08/30 08:15:58;;;;;;;;;;;26.50;79.70;;;;;;5020521;28;19937;-61
2022/08/30 08:18:26;;;;;;;;;;;26.50;79.70;;;;;;5004895;28;19930;-63
2022/08/30 08:20:53;;;;;;;;;;;26.50;79.70;;;;;;5015495;28;20488;-62
2022/08/30 08:23:22;;;;;;;;;;;26.50;79.70;;;;;;5007009;28;20377;-61
2022/08/30 08:25:50;;;;;;;;;;;26.50;79.70;;;;;;5022931;28;19929;-64
2022/08/30 08:28:18;;;;;;;;;;;26.50;79.70;;;;;;5012363;28;19930;-60
2022/08/30 08:30:45;;;;;;;;;;;26.50;79.70;;;;;;5015870;28;19925;-63
2022/08/30 08:33:14;;;;;;;;;;;26.50;79.70;;;;;;5015045;28;19929;-62
2022/08/30 08:35:42;;;;;;;;;;;26.50;79.60;;;;;;5012412;28;19936;-63
2022/08/30 08:38:09;;;;;;;;;;;26.50;79.60;;;;;;5006530;28;20614;-61
2022/08/30 08:40:42;;;;;;;;;;;26.50;79.60;;;;;;5002249;28;19925;-63
2022/08/30 08:43:11;;;;;;;;;;;26.50;79.60;;;;;;5010899;28;19930;-63
2022/08/30 08:45:41;;;;;;;;;;;26.50;79.60;;;;;;5002993;28;19964;-63
2022/08/30 08:48:10;;;;;;;;;;;26.50;79.60;;;;;;5009961;28;19937;-60
2022/08/30 08:53:33;;;;;;;;;;;26.50;79.70;;;;;;5013994;28;19955;-61
2022/08/30 08:53:34;;;;;;;;;;;26.50;79.70;;;;;;5009057;28;19952;-62
2022/08/30 08:56:14;;;;;;;;;;;26.50;79.60;;;;;;5015959;28;19929;-63
2022/08/30 08:58:43;;;;;;;;;;;26.50;79.70;;;;;;5007554;28;20031;-60
2022/08/30 09:01:12;;;;;;;;;;;26.50;79.70;;;;;;5007608;28;20286;-62
2022/08/30 09:03:39;;;;;;;;;;;26.50;79.70;;;;;;5004843;28;20385;-61
2022/08/30 09:06:27;;;;;;;;;;;26.50;79.70;;;;;;5006931;28;19925;-60
2022/08/30 09:08:54;;;;;;;;;;;26.50;79.60;;;;;;5004094;28;19933;-65
2022/08/30 09:11:29;;;;;;;;;;;26.60;79.70;;;;;;5014975;28;19925;-63
2022/08/30 09:13:57;;;;;;;;;;;26.50;79.60;;;;;;5005214;28;19960;-62
2022/08/30 09:16:44;;;;;;;;;;;26.60;79.70;;;;;;5010460;28;19933;-64
2022/08/30 09:19:25;;;;;;;;;;;26.60;79.70;;;;;;5010420;28;19936;-57
2022/08/30 09:21:58;;;;;;;;;;;26.60;79.70;;;;;;5006736;28;19936;-62
2022/08/30 09:24:25;;;;;;;;;;;26.60;79.70;;;;;;5002247;28;20329;-65
2022/08/30 09:26:53;;;;;;;;;;;26.60;79.70;;;;;;4991511;28;19936;-63
2022/08/30 09:29:21;;;;;;;;;;;26.60;79.70;;;;;;5023472;28;19936;-61
2022/08/30 09:31:52;;;;;;;;;;;26.60;79.90;;;;;;5006260;28;19932;-63
2022/08/30 09:34:41;;;;;;;;;;;26.60;79.70;;;;;;5020637;28;20544;-62
2022/08/30 09:37:22;;;;;;;;;;;26.60;79.70;;;;;;5006034;28;20538;-62
2022/08/30 09:39:49;;;;;;;;;;;26.60;79.80;;;;;;4999431;28;19930;-63
2022/08/30 09:42:25;;;;;;;;;;;26.60;79.80;;;;;;5013686;28;19945;-63
2022/08/30 09:44:52;;;;;;;;;;;26.60;79.70;;;;;;5007213;28;19937;-63
2022/08/30 09:47:23;;;;;;;;;;;26.60;79.80;;;;;;5006031;28;19930;-62
2022/08/30 09:50:00;;;;;;;;;;;26.60;79.70;;;;;;5010054;28;19930;-61
2022/08/30 09:52:30;;;;;;;;;;;26.60;79.70;;;;;;5011635;28;19940;-64
2022/08/30 09:55:13;;;;;;;;;;;26.70;79.70;;;;;;5025460;28;19929;-64
2022/08/30 09:57:51;;;;;;;;;;;26.70;79.70;;;;;;5012931;28;19936;-64
2022/08/30 10:00:20;;;;;;;;;;;26.70;79.70;;;;;;5008890;28;19948;-63
2022/08/30 10:02:57;;;;;;;;;;;26.70;79.70;;;;;;5007736;28;19936;-65
2022/08/30 10:05:28;;;;;;;;;;;26.70;79.70;;;;;;5014388;28;20472;-62
2022/08/30 10:07:55;;;;;;;;;;;26.70;79.70;;;;;;5013378;28;19933;-62
2022/08/30 10:10:29;;;;;;;;;;;26.70;79.70;;;;;;5024410;28;19929;-65
2022/08/30 10:13:16;;;;;;;;;;;26.70;79.70;;;;;;5011009;28;20336;-63
2022/08/30 10:15:49;;;;;;;;;;;26.70;79.70;;;;;;5016847;28;20439;-64
2022/08/30 10:18:32;;;;;;;;;;;26.70;80.30;;;;;;5028801;28;19940;-60
2022/08/30 10:21:14;;;;;;;;;;;26.60;79.70;;;;;;5012501;28;19936;-63
2022/08/30 10:23:54;;;;;;;;;;;26.70;79.80;;;;;;5015574;28;19933;-63
2022/08/30 10:26:34;;;;;;;;;;;26.70;79.80;;;;;;5021080;28;19926;-62
2022/08/30 10:29:15;;;;;;;;;;;26.70;79.80;;;;;;5021632;28;19937;-62
2022/08/30 10:31:55;;;;;;;;;;;26.70;79.80;;;;;;5018417;28;19934;-62
2022/08/30 10:34:30;;;;;;;;;;;26.70;79.80;;;;;;5017871;28;19933;-61
2022/08/30 10:37:03;;;;;;;;;;;26.70;79.90;;;;;;5028369;28;20392;-62
2022/08/30 10:39:34;;;;;;;;;;;26.70;79.90;;;;;;5012015;28;20160;-64
2022/08/30 10:42:10;;;;;;;;;;;26.70;79.90;;;;;;5021617;28;19930;-62
2022/08/30 10:44:40;;;;;;;;;;;26.70;79.90;;;;;;5017377;28;20301;-63
2022/08/30 10:47:13;;;;;;;;;;;26.70;79.80;;;;;;5031196;28;20397;-65
2022/08/30 10:49:53;;;;;;;;;;;26.70;79.80;;;;;;5011777;28;19929;-63
2022/08/30 10:52:36;;;;;;;;;;;26.70;79.80;;;;;;5015229;28;19930;-64
2022/08/30 10:55:15;;;;;;;;;;;26.70;79.80;;;;;;5017485;28;19936;-63
2022/08/30 10:57:44;;;;;;;;;;;26.70;79.80;;;;;;5003058;28;20409;-61
2022/08/30 11:00:34;;;;;;;;;;;26.70;79.80;;;;;;5005285;28;19932;-61
2022/08/30 11:03:01;;;;;;;;;;;26.70;79.80;;;;;;5015521;28;19933;-61
2022/08/30 11:05:37;;;;;;;;;;;26.70;79.80;;;;;;5006107;28;20285;-61
2022/08/30 11:08:17;;;;;;;;;;;26.70;79.80;;;;;;5020958;28;19929;-63
2022/08/30 11:10:58;;;;;;;;;;;26.70;79.80;;;;;;4998054;28;19933;-60
2022/08/30 11:13:27;;;;;;;;;;;26.70;79.80;;;;;;5018770;28;19933;-62
2022/08/30 11:15:58;;;;;;;;;;;26.70;79.80;;;;;;5024762;28;19929;-60
2022/08/30 11:18:32;;;;;;;;;;;26.70;79.90;;;;;;5007913;28;19956;-63
2022/08/30 11:21:17;;;;;;;;;;;26.70;79.90;;;;;;5017820;28;19936;-60
2022/08/30 11:24:03;;;;;;;;;;;26.70;79.80;;;;;;5017737;28;19929;-64
2022/08/30 11:26:49;;;;;;;;;;;26.70;79.90;;;;;;5023857;28;19932;-63
2022/08/30 11:29:29;;;;;;;;;;;26.70;79.90;;;;;;5021599;28;19936;-63
2022/08/30 11:32:18;;;;;;;;;;;26.60;79.80;;;;;;5013146;28;19925;-63
2022/08/30 11:34:45;;;;;;;;;;;26.70;79.90;;;;;;5014887;28;19937;-64
2022/08/30 11:37:42;;;;;;;;;;;26.70;79.90;;;;;;5020892;28;19934;-63
2022/08/30 11:40:30;;;;;;;;;;;26.70;79.90;;;;;;4996793;28;19930;-62
2022/08/30 11:43:17;;;;;;;;;;;26.70;80.40;;;;;;5018631;28;19929;-63
2022/08/30 11:45:46;;;;;;;;;;;26.70;79.90;;;;;;4987020;28;20054;-62
2022/08/30 11:48:44;;;;;;;;;;;26.70;79.80;;;;;;5013219;28;19936;-63
2022/08/30 11:51:20;;;;;;;;;;;26.70;79.80;;;;;;4995709;28;19929;-65
2022/08/30 11:53:55;;;;;;;;;;;26.70;79.80;;;;;;5009158;28;19929;-58
2022/08/30 11:56:35;;;;;;;;;;;26.70;79.70;;;;;;5012489;28;20338;-62
2022/08/30 11:59:09;;;;;;;;;;;26.70;79.70;;;;;;5014088;28;19936;-63
2022/08/30 12:01:40;;;;;;;;;;;26.70;79.70;;;;;;5007911;28;19929;-63
2022/08/30 12:04:23;;;;;;;;;;;26.70;79.70;;;;;;5007816;28;20325;-62
2022/08/30 12:06:55;;;;;;;;;;;26.80;79.70;;;;;;5010460;28;19937;-64
2022/08/30 12:09:23;;;;;;;;;;;26.70;79.60;;;;;;5019479;28;19929;-63
2022/08/30 12:11:59;;;;;;;;;;;26.70;79.60;;;;;;5015166;28;19930;-61
2022/08/30 12:14:56;;;;;;;;;;;26.80;79.60;;;;;;5009809;28;20394;-63
2022/08/30 12:20:22;;;;;;;;;;;26.80;79.60;;;;;;5011189;28;19936;-62
2022/08/30 12:22:50;;;;;;;;;;;26.70;79.50;;;;;;5019680;28;19938;-63
2022/08/30 12:25:22;;;;;;;;;;;26.70;79.50;;;;;;5013307;28;19929;-64
2022/08/30 12:27:50;;;;;;;;;;;26.80;79.90;;;;;;5011594;28;19930;-64
2022/08/30 12:30:23;;;;;;;;;;;26.80;79.50;;;;;;5016601;28;19932;-60
2022/08/30 12:32:52;;;;;;;;;;;26.80;79.50;;;;;;5009320;28;19936;-63
2022/08/30 12:35:22;;;;;;;;;;;26.80;80.10;;;;;;5011654;28;20320;-62
2022/08/30 12:38:00;;;;;;;;;;;26.80;79.50;;;;;;5011077;28;19948;-62
2022/08/30 12:40:30;;;;;;;;;;;26.80;79.50;;;;;;5010038;28;19940;-64
2022/08/30 12:42:59;;;;;;;;;;;26.80;79.40;;;;;;5018703;28;19948;-63
2022/08/30 12:45:30;;;;;;;;;;;26.80;79.50;;;;;;5012503;28;19936;-61
2022/08/30 12:48:00;;;;;;;;;;;26.80;79.50;;;;;;5015152;28;19929;-63
2022/08/30 12:50:34;;;;;;;;;;;26.80;79.50;;;;;;5004456;28;19934;-64
2022/08/30 12:53:05;;;;;;;;;;;26.80;79.40;;;;;;5015645;28;19925;-62
2022/08/30 12:55:50;;;;;;;;;;;26.90;79.40;;;;;;5025866;28;19929;-64
2022/08/30 12:58:32;;;;;;;;;;;26.80;79.30;;;;;;5022501;28;19936;-62
2022/08/30 13:01:14;;;;;;;;;;;26.90;79.30;;;;;;5016957;28;19929;-64
2022/08/30 13:04:07;;;;;;;;;;;26.90;79.30;;;;;;5019260;28;20252;-63
2022/08/30 13:06:36;;;;;;;;;;;26.90;79.20;;;;;;5008295;28;19925;-64
2022/08/30 13:09:04;;;;;;;;;;;26.90;79.20;;;;;;5013150;28;20004;-62
2022/08/30 13:11:31;;;;;;;;;;;26.90;79.20;;;;;;5013206;28;19936;-60
2022/08/30 13:14:18;;;;;;;;;;;26.90;79.10;;;;;;5014466;28;19929;-63
2022/08/30 13:16:45;;;;;;;;;;;27.00;79.10;;;;;;5015244;28;19929;-62
2022/08/30 13:19:25;;;;;;;;;;;27.00;79.10;;;;;;5007648;28;19952;-65
2022/08/30 13:21:54;;;;;;;;;;;27.00;79.00;;;;;;5013427;28;19936;-64
2022/08/30 13:24:22;;;;;;;;;;;27.10;79.10;;;;;;5006636;28;20514;-63
2022/08/30 13:26:55;;;;;;;;;;;27.10;79.00;;;;;;5012841;28;20239;-62
2022/08/30 13:29:26;;;;;;;;;;;27.10;79.00;;;;;;5009726;28;19956;-63
2022/08/30 13:31:54;;;;;;;;;;;27.10;78.90;;;;;;5018864;28;19929;-61
2022/08/30 13:34:22;;;;;;;;;;;27.20;78.90;;;;;;4998184;28;19926;-64
2022/08/30 13:36:56;;;;;;;;;;;27.20;78.80;;;;;;5014937;28;19937;-62
2022/08/30 13:39:23;;;;;;;;;;;27.30;78.80;;;;;;5011988;28;20325;-63
2022/08/30 13:41:51;;;;;;;;;;;27.30;78.70;;;;;;5029118;28;19926;-63
2022/08/30 13:44:18;;;;;;;;;;;27.40;78.60;;;;;;5025152;28;20465;-65
2022/08/30 13:46:49;;;;;;;;;;;27.40;78.50;;;;;;5031381;28;19929;-62
2022/08/30 13:49:21;;;;;;;;;;;27.40;78.50;;;;;;5019700;28;19925;-64
2022/08/30 13:52:08;;;;;;;;;;;27.40;78.50;;;;;;5022055;28;19925;-60
2022/08/30 13:54:51;;;;;;;;;;;27.40;78.50;;;;;;5017405;28;19930;-63
2022/08/30 13:57:20;;;;;;;;;;;27.40;78.50;;;;;;5022566;28;19926;-60
2022/08/30 14:00:10;;;;;;;;;;;27.40;78.50;;;;;;5013390;28;19936;-64
2022/08/30 14:02:40;;;;;;;;;;;27.30;78.60;;;;;;5010455;28;19932;-64
2022/08/30 14:05:14;;;;;;;;;;;27.30;78.60;;;;;;5017743;28;20397;-61
2022/08/30 14:08:02;;;;;;;;;;;27.30;78.70;;;;;;5016729;28;19929;-63
2022/08/30 14:10:30;;;;;;;;;;;27.30;78.70;;;;;;5015452;28;19929;-61
2022/08/30 14:12:59;;;;;;;;;;;27.30;78.60;;;;;;5019731;28;19929;-62
2022/08/30 14:15:38;;;;;;;;;;;27.40;78.70;;;;;;5011991;28;20427;-63
2022/08/30 14:18:06;;;;;;;;;;;27.40;78.60;;;;;;5009984;28;19930;-62
2022/08/30 14:20:34;;;;;;;;;;;27.40;78.50;;;;;;5007816;28;19933;-62
2022/08/30 14:23:05;;;;;;;;;;;27.50;78.40;;;;;;5016360;28;19936;-64
2022/08/30 14:25:36;;;;;;;;;;;27.60;78.40;;;;;;5021176;28;19940;-61
2022/08/30 14:28:07;;;;;;;;;;;27.70;78.20;;;;;;5013218;28;20491;-62
2022/08/30 14:30:36;;;;;;;;;;;27.80;78.10;;;;;;5016858;28;19937;-61
2022/08/30 14:33:03;;;;;;;;;;;27.80;78.00;;;;;;5017102;28;19929;-64
2022/08/30 14:35:30;;;;;;;;;;;27.90;77.90;;;;;;5023750;28;19929;-64
2022/08/30 14:37:58;;;;;;;;;;;28.00;77.80;;;;;;5024425;28;19929;-63
2022/08/30 14:40:25;;;;;;;;;;;28.00;77.70;;;;;;5034200;28;19932;-60
2022/08/30 14:42:52;;;;;;;;;;;28.00;77.60;;;;;;5025822;28;19929;-65